Time;durP1;ratioP1;P1;durP2;ratioP2;P2;SDS_P1;SDS_P2;PMS_P1;PMS_P2;Temp;Humidity;BMP_temperature;BMP_pressure;BME280_temperature;BME280_humidity;BME280_pressure;Samples;Min_cycle;Max_cycle;Signal;HPM_P1;HPM_P2
2022/10/27 00:01:58;;;;;;;27.90;15.17;;;8.80;99.90;;;;;;4178246;28;20032;-63
2022/10/27 00:03:59;;;;;;;27.27;15.17;;;8.80;99.90;;;;;;4177783;28;20091;-65
2022/10/27 00:06:05;;;;;;;25.03;14.40;;;8.90;99.90;;;;;;4178425;28;20087;-65
2022/10/27 00:08:08;;;;;;;26.90;15.50;;;8.80;99.90;;;;;;4177208;28;20037;-63
2022/10/27 00:10:09;;;;;;;26.63;14.43;;;8.80;99.90;;;;;;4178371;28;20017;-63
2022/10/27 00:12:10;;;;;;;30.13;14.30;;;8.80;99.90;;;;;;4177598;28;20029;-64
2022/10/27 00:14:11;;;;;;;25.73;14.00;;;8.90;99.90;;;;;;4178575;28;20037;-63
2022/10/27 00:16:14;;;;;;;29.10;13.87;;;8.90;99.90;;;;;;4177020;28;20021;-63
2022/10/27 00:18:15;;;;;;;21.03;13.43;;;8.90;99.90;;;;;;4173354;28;20099;-62
2022/10/27 00:20:16;;;;;;;20.83;12.37;;;8.90;99.90;;;;;;4177710;28;20055;-63
2022/10/27 00:22:17;;;;;;;18.50;11.93;;;8.90;99.90;;;;;;4178661;28;20104;-66
2022/10/27 00:24:20;;;;;;;22.00;12.27;;;8.90;99.90;;;;;;4177360;28;21666;-65
2022/10/27 00:26:21;;;;;;;20.30;11.80;;;8.90;99.90;;;;;;4177019;28;20401;-64
2022/10/27 00:28:23;;;;;;;19.73;11.53;;;8.90;99.90;;;;;;4177572;28;20087;-66
2022/10/27 00:30:26;;;;;;;22.70;12.53;;;8.90;99.90;;;;;;4177761;28;20037;-68
2022/10/27 00:32:27;;;;;;;18.57;11.73;;;8.90;99.90;;;;;;4176924;28;20041;-68
2022/10/27 00:34:28;;;;;;;18.40;11.13;;;9.00;99.90;;;;;;4178489;28;20029;-63
2022/10/27 00:36:29;;;;;;;21.43;12.17;;;9.00;99.90;;;;;;4177819;28;20025;-63
2022/10/27 00:38:30;;;;;;;20.47;12.50;;;9.00;99.90;;;;;;4177635;28;20025;-67
2022/10/27 00:40:37;;;;;;;21.80;12.73;;;9.00;99.90;;;;;;4177401;28;20033;-63
2022/10/27 00:42:39;;;;;;;22.70;12.53;;;9.00;99.90;;;;;;4177138;28;20033;-65
2022/10/27 00:44:45;;;;;;;17.87;11.10;;;9.00;99.90;;;;;;4178076;28;20041;-66
2022/10/27 00:46:47;;;;;;;19.80;11.53;;;9.10;99.90;;;;;;4176395;28;20040;-64
2022/10/27 00:48:52;;;;;;;21.47;11.13;;;9.00;99.90;;;;;;4177958;28;20470;-66
2022/10/27 00:50:53;;;;;;;20.87;11.27;;;9.00;99.90;;;;;;4177244;28;20033;-62
2022/10/27 00:52:57;;;;;;;17.77;11.07;;;9.00;99.90;;;;;;4178051;28;20033;-67
2022/10/27 00:55:09;;;;;;;19.97;11.80;;;9.00;99.90;;;;;;4177039;28;20053;-63
2022/10/27 00:57:11;;;;;;;22.97;12.20;;;8.90;99.90;;;;;;4177235;28;20102;-62
2022/10/27 00:59:14;;;;;;;19.97;10.90;;;8.80;99.90;;;;;;4177004;28;20033;-66
2022/10/27 01:01:15;;;;;;;24.53;11.87;;;8.80;99.90;;;;;;4177127;28;20091;-66
2022/10/27 01:03:21;;;;;;;26.07;12.80;;;8.70;99.90;;;;;;4176832;28;20157;-65
2022/10/27 01:05:25;;;;;;;23.87;13.13;;;8.60;99.90;;;;;;4177885;28;20033;-66
2022/10/27 01:07:27;;;;;;;21.43;12.57;;;8.60;99.90;;;;;;4177107;28;20025;-62
2022/10/27 01:09:29;;;;;;;20.37;11.57;;;8.60;99.90;;;;;;4178042;28;20424;-63
2022/10/27 01:11:30;;;;;;;21.13;12.03;;;8.60;99.90;;;;;;4177399;28;20031;-63
2022/10/27 01:13:32;;;;;;;18.20;11.50;;;8.70;99.90;;;;;;4159892;28;20087;-62
2022/10/27 01:15:58;;;;;;;18.23;10.97;;;8.60;99.90;;;;;;4176975;28;20078;-65
2022/10/27 01:18:04;;;;;;;21.17;11.03;;;8.50;99.90;;;;;;4177089;28;20044;-65
2022/10/27 01:20:26;;;;;;;14.87;9.43;;;8.40;99.90;;;;;;4175307;28;20480;-62
2022/10/27 01:22:41;;;;;;;17.83;10.33;;;8.40;99.90;;;;;;4178226;28;20771;-66
2022/10/27 01:25:03;;;;;;;15.13;10.27;;;8.30;99.90;;;;;;4176667;28;20037;-68
2022/10/27 01:27:16;;;;;;;23.03;10.83;;;8.30;99.90;;;;;;4178100;28;20075;-65
2022/10/27 01:29:41;;;;;;;16.80;11.27;;;8.30;99.90;;;;;;4175682;28;20474;-66
2022/10/27 01:32:17;;;;;;;18.77;11.07;;;8.30;99.90;;;;;;4177483;28;20033;-67
2022/10/27 01:34:41;;;;;;;18.93;10.30;;;8.40;99.90;;;;;;4093539;29;20432;-63
2022/10/27 01:36:47;;;;;;;14.57;9.80;;;8.50;99.90;;;;;;4154227;28;20768;-62
2022/10/27 01:38:57;;;;;;;17.87;10.40;;;8.60;99.90;;;;;;4177184;28;20033;-62
2022/10/27 01:41:08;;;;;;;17.42;11.68;;;8.70;99.90;;;;;;4177552;28;20091;-64
2022/10/27 01:43:16;;;;;;;16.47;10.20;;;8.60;99.90;;;;;;4176522;28;20041;-69
2022/10/27 01:45:26;;;;;;;15.73;10.73;;;8.60;99.90;;;;;;4176480;28;20075;-65
2022/10/27 01:47:28;;;;;;;15.73;10.10;;;8.60;99.90;;;;;;4176111;28;20099;-67
2022/10/27 01:49:37;;;;;;;16.67;9.83;;;8.60;99.90;;;;;;4177353;28;20075;-63
2022/10/27 01:51:38;;;;;;;17.63;10.47;;;8.60;99.90;;;;;;4176959;28;20075;-63
2022/10/27 01:53:45;;;;;;;21.00;10.27;;;8.60;99.90;;;;;;4177511;28;20488;-66
2022/10/27 01:56:04;;;;;;;18.33;11.30;;;8.70;99.90;;;;;;4176642;28;20451;-66
2022/10/27 01:58:11;;;;;;;21.30;10.60;;;8.70;99.90;;;;;;4177805;28;20445;-63
2022/10/27 02:00:12;;;;;;;17.77;11.40;;;8.70;99.90;;;;;;4175701;28;20037;-67
2022/10/27 02:02:36;;;;;;;18.50;12.00;;;8.70;99.90;;;;;;4177056;28;20094;-66
2022/10/27 02:04:43;;;;;;;17.37;11.37;;;8.60;99.90;;;;;;4179628;28;20037;-63
2022/10/27 02:06:52;;;;;;;21.10;11.23;;;8.50;99.90;;;;;;4180517;28;20085;-63
2022/10/27 02:09:03;;;;;;;19.70;11.80;;;8.50;99.90;;;;;;4179641;28;20014;-63
2022/10/27 02:11:06;;;;;;;20.00;12.57;;;8.50;99.90;;;;;;4176282;28;20024;-66
2022/10/27 02:13:08;;;;;;;22.70;12.30;;;8.40;99.90;;;;;;4179350;28;20059;-62
2022/10/27 02:15:34;;;;;;;24.13;13.00;;;8.40;99.90;;;;;;4180105;28;20033;-63
2022/10/27 02:17:38;;;;;;;25.80;13.57;;;8.30;99.90;;;;;;4167565;28;20086;-67
2022/10/27 02:19:41;;;;;;;21.23;12.63;;;8.30;99.90;;;;;;4180417;28;20079;-64
2022/10/27 02:21:45;;;;;;;23.20;13.73;;;8.40;99.90;;;;;;4178089;28;20107;-62
2022/10/27 02:23:47;;;;;;;19.13;12.03;;;8.30;99.90;;;;;;4178992;28;20052;-62
2022/10/27 02:25:54;;;;;;;22.20;13.67;;;8.30;99.90;;;;;;4178880;28;20459;-63
2022/10/27 02:28:00;;;;;;;26.70;13.23;;;8.40;99.90;;;;;;4179897;28;20071;-63
2022/10/27 02:30:03;;;;;;;22.83;13.47;;;8.40;99.90;;;;;;4179498;28;20025;-68
2022/10/27 02:32:07;;;;;;;19.77;12.97;;;8.50;99.90;;;;;;4180475;28;20017;-62
2022/10/27 02:34:09;;;;;;;22.70;13.63;;;8.50;99.90;;;;;;4178200;28;20049;-63
2022/10/27 02:36:10;;;;;;;23.53;13.63;;;8.60;99.90;;;;;;4180193;28;20029;-62
2022/10/27 02:38:12;;;;;;;21.93;13.60;;;8.50;99.90;;;;;;4178613;28;20099;-67
2022/10/27 02:40:13;;;;;;;19.97;11.87;;;8.60;99.90;;;;;;4179795;28;20339;-64
2022/10/27 02:42:14;;;;;;;19.63;12.03;;;8.50;99.90;;;;;;4178975;28;20045;-62
2022/10/27 02:44:15;;;;;;;19.83;11.87;;;8.50;99.90;;;;;;4180033;28;20473;-66
2022/10/27 02:46:17;;;;;;;18.30;12.73;;;8.50;99.90;;;;;;4178916;28;20045;-61
2022/10/27 02:48:18;;;;;;;18.50;12.77;;;8.60;99.90;;;;;;4178031;28;20045;-64
2022/10/27 02:50:19;;;;;;;20.77;12.10;;;8.60;99.90;;;;;;4178904;28;20033;-62
2022/10/27 02:52:21;;;;;;;25.50;12.13;;;8.70;99.90;;;;;;4178386;28;20142;-64
2022/10/27 02:54:22;;;;;;;22.50;13.90;;;8.70;99.90;;;;;;4179495;28;20425;-63
2022/10/27 02:56:23;;;;;;;20.57;13.23;;;8.70;99.90;;;;;;4178901;28;20036;-66
2022/10/27 02:58:24;;;;;;;21.90;13.03;;;8.70;99.90;;;;;;4179896;28;20032;-63
2022/10/27 03:00:25;;;;;;;21.33;12.37;;;8.70;99.90;;;;;;4178352;28;20049;-61
2022/10/27 03:02:26;;;;;;;27.10;13.87;;;8.60;99.90;;;;;;4179962;28;20033;-62
2022/10/27 03:04:27;;;;;;;22.67;13.27;;;8.60;99.90;;;;;;4178679;28;20033;-63
2022/10/27 03:06:28;;;;;;;20.20;12.83;;;8.70;99.90;;;;;;4161794;28;20453;-62
2022/10/27 03:08:30;;;;;;;22.47;13.73;;;8.60;99.90;;;;;;4178730;28;20029;-62
2022/10/27 03:10:31;;;;;;;26.80;14.60;;;8.60;99.90;;;;;;4179609;28;20040;-63
2022/10/27 03:12:32;;;;;;;31.73;15.13;;;8.60;99.90;;;;;;4179275;28;20508;-64
2022/10/27 03:14:33;;;;;;;27.30;15.37;;;8.50;99.90;;;;;;4178531;28;20090;-64
2022/10/27 03:16:34;;;;;;;24.93;14.00;;;8.50;99.90;;;;;;4179031;28;20114;-65
2022/10/27 03:18:35;;;;;;;23.53;14.60;;;8.50;99.90;;;;;;4178363;28;20440;-65
2022/10/27 03:20:36;;;;;;;20.67;13.37;;;8.50;99.90;;;;;;4179272;28;20527;-63
2022/10/27 03:22:38;;;;;;;21.60;13.87;;;8.50;99.90;;;;;;4177947;28;20037;-67
2022/10/27 03:24:39;;;;;;;29.67;15.37;;;8.50;99.90;;;;;;4160931;28;20100;-64
2022/10/27 03:26:40;;;;;;;25.50;13.90;;;8.60;99.90;;;;;;4172619;28;20102;-66
2022/10/27 03:28:41;;;;;;;24.97;13.60;;;8.60;99.90;;;;;;4178345;28;20040;-65
2022/10/27 03:30:42;;;;;;;25.37;13.40;;;8.60;99.90;;;;;;4177427;28;20045;-63
2022/10/27 03:32:46;;;;;;;27.63;15.70;;;8.60;99.90;;;;;;4179683;28;20083;-62
2022/10/27 03:34:48;;;;;;;24.77;13.90;;;8.70;99.90;;;;;;4178362;28;20033;-64
2022/10/27 03:36:49;;;;;;;23.77;13.47;;;8.70;99.90;;;;;;4179593;28;20521;-67
2022/10/27 03:38:50;;;;;;;22.40;14.40;;;8.70;99.90;;;;;;4178140;28;20087;-64
2022/10/27 03:40:51;;;;;;;31.60;14.97;;;8.60;99.90;;;;;;4179056;28;20029;-63
2022/10/27 03:42:57;;;;;;;25.03;14.33;;;8.60;99.90;;;;;;4178533;28;20436;-62
2022/10/27 03:44:58;;;;;;;22.63;13.67;;;8.50;99.90;;;;;;4179356;28;20518;-62
2022/10/27 03:46:59;;;;;;;24.60;14.27;;;8.50;99.90;;;;;;4178312;28;20033;-65
2022/10/27 03:49:00;;;;;;;24.67;14.37;;;8.40;99.90;;;;;;4177841;28;20045;-67
2022/10/27 03:51:02;;;;;;;24.03;13.23;;;8.30;99.90;;;;;;4160230;28;20041;-66
2022/10/27 03:53:03;;;;;;;28.50;12.03;;;8.20;99.90;;;;;;4178505;28;20558;-66
2022/10/27 03:55:05;;;;;;;20.67;13.53;;;8.10;99.90;;;;;;4178657;28;20040;-66
2022/10/27 03:57:09;;;;;;;23.03;14.00;;;8.00;99.90;;;;;;4178081;28;20435;-63
2022/10/27 03:59:10;;;;;;;24.90;14.67;;;8.00;99.90;;;;;;4178686;28;20416;-63
2022/10/27 04:01:11;;;;;;;26.07;14.93;;;7.90;99.90;;;;;;4177658;28;20021;-65
2022/10/27 04:03:13;;;;;;;32.30;15.00;;;7.90;99.90;;;;;;4178990;28;20033;-66
2022/10/27 04:05:14;;;;;;;29.87;17.20;;;7.90;99.90;;;;;;4177826;28;20032;-68
2022/10/27 04:07:15;;;;;;;24.97;16.30;;;7.90;99.90;;;;;;4178503;28;20125;-67
2022/10/27 04:09:16;;;;;;;30.33;17.43;;;7.90;99.90;;;;;;4177833;28;20094;-63
2022/10/27 04:11:17;;;;;;;27.70;18.50;;;7.90;99.90;;;;;;4178572;28;20078;-65
2022/10/27 04:13:18;;;;;;;30.33;18.50;;;7.90;99.90;;;;;;4160781;28;20091;-63
2022/10/27 04:15:21;;;;;;;29.57;18.43;;;7.80;99.90;;;;;;4161550;28;20033;-64
2022/10/27 04:17:22;;;;;;;29.23;18.60;;;7.80;99.90;;;;;;4166669;28;20029;-67
2022/10/27 04:19:23;;;;;;;35.53;18.63;;;7.70;99.90;;;;;;4177524;28;20389;-65
2022/10/27 04:21:24;;;;;;;38.17;19.47;;;7.70;99.90;;;;;;4177758;28;20037;-63
2022/10/27 04:23:25;;;;;;;33.87;18.57;;;7.70;99.90;;;;;;4177894;28;20376;-65
2022/10/27 04:25:27;;;;;;;39.13;20.17;;;7.60;99.90;;;;;;4176623;28;20065;-66
2022/10/27 04:27:28;;;;;;;30.07;18.13;;;7.60;99.90;;;;;;4176654;28;20464;-67
2022/10/27 04:29:29;;;;;;;29.80;19.27;;;7.60;99.90;;;;;;4177194;28;20033;-66
2022/10/27 04:31:30;;;;;;;36.03;19.20;;;7.60;99.90;;;;;;4175289;28;20025;-63
2022/10/27 04:33:31;;;;;;;36.40;20.67;;;7.60;99.90;;;;;;4177234;28;20662;-62
2022/10/27 04:35:32;;;;;;;34.83;19.97;;;7.60;99.90;;;;;;4177141;28;20087;-63
2022/10/27 04:37:34;;;;;;;29.37;19.10;;;7.60;99.90;;;;;;4178481;28;20029;-67
2022/10/27 04:39:35;;;;;;;32.57;18.57;;;7.60;99.90;;;;;;4177026;28;20029;-66
2022/10/27 04:41:36;;;;;;;30.53;18.53;;;7.60;99.90;;;;;;4178038;28;20090;-64
2022/10/27 04:43:37;;;;;;;27.20;18.10;;;7.60;99.90;;;;;;4177733;28;20366;-65
2022/10/27 04:45:40;;;;;;;33.00;19.00;;;7.60;99.90;;;;;;4177695;28;20091;-64
2022/10/27 04:47:42;;;;;;;37.50;19.27;;;7.60;99.90;;;;;;4177155;28;20090;-63
2022/10/27 04:49:43;;;;;;;27.37;18.37;;;7.50;99.90;;;;;;4176680;28;20123;-63
2022/10/27 04:51:44;;;;;;;30.03;17.23;;;7.50;99.90;;;;;;4176647;28;20067;-64
2022/10/27 04:53:45;;;;;;;28.73;17.93;;;7.50;99.90;;;;;;4177538;28;20078;-64
2022/10/27 04:55:49;;;;;;;34.87;19.33;;;7.50;99.90;;;;;;4176423;28;20037;-64
2022/10/27 04:57:50;;;;;;;34.03;20.70;;;7.50;99.90;;;;;;4175945;28;20033;-62
2022/10/27 04:59:51;;;;;;;31.67;20.80;;;7.50;99.90;;;;;;4177087;28;20242;-64
2022/10/27 05:01:52;;;;;;;34.10;19.13;;;7.50;99.90;;;;;;4175653;28;20493;-66
2022/10/27 05:03:53;;;;;;;30.47;19.60;;;7.50;99.90;;;;;;4177118;28;20071;-64
2022/10/27 05:05:54;;;;;;;30.57;19.10;;;7.60;99.90;;;;;;4158006;28;20057;-63
2022/10/27 05:07:57;;;;;;;35.53;19.97;;;7.60;99.90;;;;;;4178168;28;20078;-65
2022/10/27 05:09:59;;;;;;;33.53;18.70;;;7.60;99.90;;;;;;4175922;28;20401;-63
2022/10/27 05:12:00;;;;;;;30.23;19.00;;;7.70;99.90;;;;;;4178285;28;20075;-64
2022/10/27 05:14:01;;;;;;;34.30;18.67;;;7.70;99.90;;;;;;4158674;28;20092;-65
2022/10/27 05:16:03;;;;;;;34.83;20.00;;;7.80;99.90;;;;;;4177654;28;20095;-64
2022/10/27 05:18:04;;;;;;;32.07;19.60;;;7.80;99.90;;;;;;4176007;28;20049;-64
2022/10/27 05:20:06;;;;;;;37.97;20.97;;;7.90;99.90;;;;;;4176874;28;20037;-66
2022/10/27 05:22:07;;;;;;;46.80;22.17;;;7.80;99.90;;;;;;4176694;28;20025;-66
2022/10/27 05:24:08;;;;;;;42.50;21.93;;;7.90;99.90;;;;;;4177032;28;20045;-63
2022/10/27 05:26:09;;;;;;;31.43;21.10;;;7.80;99.90;;;;;;4175808;28;20102;-66
2022/10/27 05:28:10;;;;;;;36.70;20.87;;;7.80;99.90;;;;;;4167134;28;20083;-66
2022/10/27 05:30:13;;;;;;;32.60;19.87;;;7.70;99.90;;;;;;4173078;28;20041;-65
2022/10/27 05:32:14;;;;;;;40.37;23.67;;;7.70;99.90;;;;;;4173280;28;20098;-63
2022/10/27 05:34:15;;;;;;;36.87;20.47;;;7.70;99.90;;;;;;4174499;28;20083;-65
2022/10/27 05:36:16;;;;;;;36.33;21.23;;;7.70;99.90;;;;;;4175108;28;20029;-65
2022/10/27 05:38:18;;;;;;;43.80;22.50;;;7.70;99.90;;;;;;4178775;28;20078;-64
2022/10/27 05:40:19;;;;;;;37.20;22.77;;;7.70;99.90;;;;;;4179965;28;20029;-64
2022/10/27 05:42:20;;;;;;;34.20;21.07;;;7.90;99.90;;;;;;4180761;28;20017;-65
2022/10/27 05:44:21;;;;;;;45.93;25.87;;;8.00;99.90;;;;;;4178622;28;20443;-64
2022/10/27 05:46:22;;;;;;;55.17;26.30;;;8.10;99.90;;;;;;4180751;28;20032;-68
2022/10/27 05:48:24;;;;;;;46.67;23.60;;;8.00;99.90;;;;;;4179566;28;20021;-66
2022/10/27 05:50:26;;;;;;;42.57;23.73;;;8.10;99.90;;;;;;4180736;28;20135;-63
2022/10/27 05:52:27;;;;;;;40.90;21.57;;;8.10;99.90;;;;;;4179988;28;20021;-62
2022/10/27 05:54:28;;;;;;;42.43;22.97;;;8.20;99.90;;;;;;4180729;28;20040;-65
2022/10/27 05:56:29;;;;;;;38.57;22.37;;;8.30;99.90;;;;;;4180177;28;20431;-64
2022/10/27 05:58:30;;;;;;;43.03;22.23;;;8.30;99.90;;;;;;4179405;28;20041;-67
2022/10/27 06:00:36;;;;;;;39.27;22.97;;;8.30;99.90;;;;;;4179688;28;20473;-67
2022/10/27 06:02:38;;;;;;;51.80;23.40;;;8.40;99.90;;;;;;4179731;28;20037;-65
2022/10/27 06:04:39;;;;;;;46.47;21.27;;;8.40;99.90;;;;;;4180514;28;20060;-66
2022/10/27 06:06:40;;;;;;;48.17;20.07;;;8.50;99.90;;;;;;4179753;28;20111;-64
2022/10/27 06:08:42;;;;;;;38.80;21.50;;;8.70;99.90;;;;;;4180425;28;20421;-63
2022/10/27 06:10:44;;;;;;;41.50;21.53;;;9.00;99.90;;;;;;4177738;28;20049;-66
2022/10/27 06:12:45;;;;;;;40.27;20.63;;;9.20;99.90;;;;;;4180881;28;20025;-65
2022/10/27 06:14:46;;;;;;;38.77;21.13;;;9.60;99.90;;;;;;4178933;28;20021;-64
2022/10/27 06:16:47;;;;;;;33.30;19.30;;;9.80;99.90;;;;;;4180570;28;20032;-61
2022/10/27 06:18:48;;;;;;;35.77;19.03;;;10.20;99.90;;;;;;4177583;28;20103;-63
2022/10/27 06:20:50;;;;;;;30.80;16.97;;;10.50;99.90;;;;;;4180108;28;20041;-65
2022/10/27 06:22:51;;;;;;;26.33;16.17;;;10.60;99.90;;;;;;4179119;28;20127;-63
2022/10/27 06:24:52;;;;;;;28.07;15.93;;;10.70;99.90;;;;;;4175303;28;20598;-63
2022/10/27 06:26:53;;;;;;;28.83;16.77;;;10.80;99.90;;;;;;4160422;28;20057;-68
2022/10/27 06:28:54;;;;;;;36.00;15.97;;;10.70;99.90;;;;;;4179389;28;20045;-68
2022/10/27 06:30:55;;;;;;;29.23;17.60;;;10.70;99.90;;;;;;4179362;28;20435;-67
2022/10/27 06:32:56;;;;;;;28.67;17.70;;;10.60;99.90;;;;;;4178906;28;20485;-65
2022/10/27 06:34:57;;;;;;;32.97;19.00;;;10.50;99.90;;;;;;4179105;28;20374;-64
2022/10/27 06:36:59;;;;;;;29.30;17.57;;;10.50;99.90;;;;;;4178275;28;20162;-66
2022/10/27 06:39:00;;;;;;;28.43;18.90;;;10.50;99.90;;;;;;4178955;28;20456;-64
2022/10/27 06:41:01;;;;;;;28.57;18.10;;;10.50;99.90;;;;;;4160794;28;20099;-65
2022/10/27 06:43:02;;;;;;;35.90;19.20;;;10.60;99.90;;;;;;4180168;28;20048;-63
2022/10/27 06:45:04;;;;;;;31.30;18.97;;;10.60;99.90;;;;;;4177719;28;20044;-64
2022/10/27 06:47:05;;;;;;;35.37;19.77;;;10.80;99.90;;;;;;4178541;28;20044;-66
2022/10/27 06:49:06;;;;;;;46.60;17.67;;;11.30;99.90;;;;;;4177627;28;20091;-64
2022/10/27 06:51:08;;;;;;;45.63;18.77;;;11.40;99.90;;;;;;4179668;28;20040;-67
2022/10/27 06:53:09;;;;;;;32.03;17.77;;;11.40;99.90;;;;;;4177313;28;20075;-64
2022/10/27 06:55:10;;;;;;;35.93;18.03;;;11.70;99.90;;;;;;4178187;28;20048;-64
2022/10/27 06:57:11;;;;;;;29.53;17.23;;;11.90;99.90;;;;;;4160206;28;20037;-63
2022/10/27 06:59:12;;;;;;;28.40;17.07;;;12.10;99.90;;;;;;4179054;28;20432;-67
2022/10/27 07:01:13;;;;;;;32.70;16.77;;;12.10;99.90;;;;;;4178750;28;20075;-63
2022/10/27 07:03:14;;;;;;;28.83;16.93;;;12.10;99.90;;;;;;4160349;28;20421;-62
2022/10/27 07:05:15;;;;;;;35.67;19.47;;;12.10;99.90;;;;;;4176293;28;20037;-63
2022/10/27 07:07:17;;;;;;;34.73;18.60;;;11.90;99.90;;;;;;4174981;28;20049;-66
2022/10/27 07:09:18;;;;;;;38.23;18.63;;;11.90;99.90;;;;;;4172887;28;20048;-67
2022/10/27 07:11:19;;;;;;;44.80;21.40;;;12.20;99.90;;;;;;4173714;28;20098;-67
2022/10/27 07:13:20;;;;;;;55.97;22.67;;;12.30;99.90;;;;;;4174643;28;20583;-66
2022/10/27 07:15:23;;;;;;;55.73;22.90;;;12.40;99.90;;;;;;4172908;28;20040;-65
2022/10/27 07:17:24;;;;;;;55.63;24.93;;;12.30;99.90;;;;;;4175525;28;20448;-63
2022/10/27 07:19:25;;;;;;;57.17;23.40;;;12.20;99.90;;;;;;4174150;28;20428;-62
2022/10/27 07:21:27;;;;;;;43.80;20.60;;;12.20;99.90;;;;;;4175321;28;20033;-68
2022/10/27 07:23:28;;;;;;;38.37;19.03;;;12.20;99.90;;;;;;4174716;28;20021;-67
2022/10/27 07:25:31;;;;;;;34.47;17.73;;;12.30;99.90;;;;;;4176651;28;20029;-68
2022/10/27 07:27:33;;;;;;;28.40;16.60;;;12.40;99.90;;;;;;4175297;28;20118;-69
2022/10/27 07:29:34;;;;;;;30.00;17.93;;;12.40;99.90;;;;;;4176828;28;20083;-64
2022/10/27 07:31:35;;;;;;;27.60;14.57;;;12.50;99.90;;;;;;4178042;28;20102;-70
2022/10/27 07:33:36;;;;;;;25.60;16.13;;;12.60;99.90;;;;;;4177471;28;20347;-70
2022/10/27 07:35:37;;;;;;;30.70;17.33;;;12.70;99.90;;;;;;4156407;28;20095;-67
2022/10/27 07:37:46;;;;;;;29.83;15.30;;;12.90;99.90;;;;;;4177366;28;20033;-65
2022/10/27 07:39:48;;;;;;;19.73;12.27;;;13.10;99.90;;;;;;4178025;28;20443;-69
2022/10/27 07:41:49;;;;;;;24.73;13.73;;;12.90;99.90;;;;;;4178258;28;20021;-64
2022/10/27 07:43:50;;;;;;;18.20;12.90;;;12.80;99.90;;;;;;4178646;28;20037;-66
2022/10/27 07:45:51;;;;;;;18.10;11.50;;;12.70;99.90;;;;;;4177068;28;20443;-67
2022/10/27 07:47:55;;;;;;;18.83;12.17;;;12.50;99.90;;;;;;4178476;28;20045;-66
2022/10/27 07:49:56;;;;;;;21.13;13.77;;;12.40;99.90;;;;;;4176652;28;20075;-64
2022/10/27 07:51:57;;;;;;;20.07;13.13;;;12.30;99.90;;;;;;4179030;28;20036;-66
2022/10/27 07:53:58;;;;;;;21.77;13.03;;;12.30;99.90;;;;;;4177126;28;20481;-67
2022/10/27 07:55:59;;;;;;;29.17;17.20;;;12.20;99.90;;;;;;4178927;28;20075;-68
2022/10/27 07:58:15;;;;;;;27.80;14.67;;;12.20;99.90;;;;;;4160290;28;20399;-67
2022/10/27 08:00:17;;;;;;;18.37;12.20;;;12.40;99.90;;;;;;4178299;28;20465;-70
2022/10/27 08:02:18;;;;;;;19.93;11.83;;;12.70;99.90;;;;;;4177016;28;20044;-67
2022/10/27 08:04:19;;;;;;;17.13;10.90;;;12.80;99.90;;;;;;4177729;28;20054;-66
2022/10/27 08:06:20;;;;;;;16.73;11.60;;;12.80;99.90;;;;;;4177326;28;20053;-67
2022/10/27 08:08:21;;;;;;;14.53;10.47;;;12.70;99.90;;;;;;4176917;28;20090;-67
2022/10/27 08:10:22;;;;;;;28.93;16.60;;;12.80;99.90;;;;;;4178209;28;20465;-64
2022/10/27 08:12:24;;;;;;;24.27;12.53;;;12.80;99.90;;;;;;4159478;28;20043;-67
2022/10/27 08:14:27;;;;;;;18.03;12.00;;;12.70;99.90;;;;;;4179112;28;20078;-65
2022/10/27 08:16:28;;;;;;;21.13;11.83;;;12.80;99.90;;;;;;4176917;28;20515;-67
2022/10/27 08:18:29;;;;;;;16.30;9.40;;;12.90;99.90;;;;;;4177532;28;20032;-67
2022/10/27 08:20:32;;;;;;;16.70;10.47;;;12.90;99.90;;;;;;4176719;28;20436;-67
2022/10/27 08:22:33;;;;;;;14.50;9.93;;;12.80;99.90;;;;;;4178599;28;20029;-65
2022/10/27 08:24:35;;;;;;;19.10;10.73;;;12.80;99.90;;;;;;4176317;28;20045;-66
2022/10/27 08:26:36;;;;;;;19.13;11.80;;;12.90;99.90;;;;;;4177082;28;20091;-65
2022/10/27 08:28:37;;;;;;;18.93;10.83;;;12.90;99.90;;;;;;4177084;28;20029;-67
2022/10/27 08:30:38;;;;;;;17.87;11.00;;;12.90;99.90;;;;;;4178342;28;20033;-64
2022/10/27 08:32:40;;;;;;;16.23;11.47;;;13.00;99.90;;;;;;4176089;28;20044;-64
2022/10/27 08:34:41;;;;;;;18.93;11.93;;;12.90;99.90;;;;;;4178005;28;20071;-68
2022/10/27 08:36:42;;;;;;;18.43;11.80;;;12.90;99.90;;;;;;4176802;28;20029;-64
2022/10/27 08:38:44;;;;;;;24.27;12.97;;;13.00;99.90;;;;;;4177485;28;20082;-64
2022/10/27 08:41:06;;;;;;;20.60;13.37;;;13.10;99.90;;;;;;4176790;28;20036;-65
2022/10/27 08:43:26;;;;;;;24.47;13.47;;;13.20;99.90;;;;;;4178169;28;20105;-66
2022/10/27 08:45:36;;;;;;;23.95;13.55;;;13.40;99.90;;;;;;4159280;28;20381;-67
2022/10/27 08:47:37;;;;;;;31.13;13.02;;;13.60;99.90;;;;;;4177025;28;20563;-63
2022/10/27 08:50:01;;;;;;;20.97;12.30;;;13.70;99.90;;;;;;4177350;28;20075;-67
2022/10/27 08:52:05;;;;;;;19.40;12.20;;;13.50;99.90;;;;;;4177784;28;20432;-64
2022/10/27 08:54:08;;;;;;;16.47;11.37;;;13.40;99.90;;;;;;4177201;28;20071;-68
2022/10/27 08:56:10;;;;;;;18.10;11.23;;;13.50;99.90;;;;;;4177567;28;20032;-68
2022/10/27 08:58:45;;;;;;;18.90;12.40;;;13.50;99.90;;;;;;4176313;28;20481;-67
2022/10/27 09:00:53;;;;;;;19.10;12.63;;;13.40;99.90;;;;;;4123522;28;20045;-65
2022/10/27 09:03:32;;;;;;;18.93;11.77;;;13.40;99.90;;;;;;4176835;28;20029;-65
2022/10/27 09:06:11;;;;;;;19.53;12.00;;;13.50;99.90;;;;;;4094327;29;20106;-65
2022/10/27 09:08:33;;;;;;;16.30;10.73;;;13.40;99.90;;;;;;4138707;28;20049;-68
2022/10/27 09:10:43;;;;;;;18.40;12.63;;;13.40;99.90;;;;;;4177664;28;20409;-64
2022/10/27 09:13:25;;;;;;;19.70;11.60;;;13.40;99.90;;;;;;4176699;28;20386;-67
2022/10/27 09:15:43;;;;;;;17.00;10.70;;;13.50;99.90;;;;;;4163832;28;20033;-69
2022/10/27 09:18:04;;;;;;;17.57;11.63;;;13.50;99.90;;;;;;4177232;28;20033;-64
2022/10/27 09:20:22;;;;;;;15.63;11.15;;;13.60;99.90;;;;;;4175602;28;20482;-68
2022/10/27 09:22:25;;;;;;;18.30;11.30;;;13.60;99.90;;;;;;4177691;28;20029;-67
2022/10/27 09:24:29;;;;;;;19.30;12.43;;;13.60;99.90;;;;;;4175515;28;20091;-64
2022/10/27 09:26:32;;;;;;;22.70;12.77;;;13.60;99.90;;;;;;4176069;28;20519;-66
2022/10/27 09:28:51;;;;;;;17.53;12.07;;;13.90;99.90;;;;;;4176149;28;20049;-68
2022/10/27 09:30:52;;;;;;;16.77;11.10;;;13.90;99.90;;;;;;4177211;28;20092;-64
2022/10/27 09:32:55;;;;;;;22.47;12.17;;;13.90;99.90;;;;;;4175970;28;20440;-68
2022/10/27 09:35:03;;;;;;;15.40;10.40;;;13.90;99.90;;;;;;4177069;28;20408;-63
2022/10/27 09:37:15;;;;;;;18.77;11.77;;;13.90;99.90;;;;;;4176646;28;20801;-67
2022/10/27 09:39:16;;;;;;;18.40;12.70;;;13.90;99.90;;;;;;4176937;28;20036;-67
2022/10/27 09:41:17;;;;;;;18.50;10.83;;;14.00;99.90;;;;;;4176455;28;20457;-65
2022/10/27 09:43:21;;;;;;;20.50;12.03;;;14.10;99.90;;;;;;4175874;28;20218;-65
2022/10/27 09:45:25;;;;;;;22.63;13.13;;;14.20;99.90;;;;;;4176198;28;20041;-68
2022/10/27 09:47:30;;;;;;;16.27;11.60;;;14.20;99.90;;;;;;4176255;28;20764;-67
2022/10/27 09:49:37;;;;;;;18.67;11.30;;;14.30;99.90;;;;;;4176737;28;20048;-66
2022/10/27 09:51:42;;;;;;;17.23;10.30;;;14.40;99.90;;;;;;4176276;28;20134;-69
2022/10/27 09:53:51;;;;;;;14.75;10.20;;;14.40;99.90;;;;;;4176493;28;20497;-65
2022/10/27 09:55:53;;;;;;;14.33;9.10;;;14.40;99.90;;;;;;4175823;28;20099;-66
2022/10/27 09:57:54;;;;;;;14.90;10.53;;;14.60;99.90;;;;;;4176691;28;20401;-64
2022/10/27 10:00:00;;;;;;;15.27;10.67;;;14.50;99.90;;;;;;4176628;28;20563;-67
2022/10/27 10:02:04;;;;;;;13.82;9.23;;;14.60;99.90;;;;;;4177405;28;20436;-65
2022/10/27 10:04:14;;;;;;;13.95;9.52;;;14.70;99.90;;;;;;4176380;28;20477;-65
2022/10/27 10:06:28;;;;;;;16.52;9.35;;;14.70;99.90;;;;;;4177937;28;20489;-64
2022/10/27 10:08:35;;;;;;;19.95;9.77;;;14.80;99.90;;;;;;4176116;28;20102;-64
2022/10/27 10:10:36;;;;;;;14.85;10.55;;;14.80;99.90;;;;;;4176230;28;20045;-64
2022/10/27 10:12:37;;;;;;;17.45;11.25;;;14.90;99.90;;;;;;4175205;28;20049;-63
2022/10/27 10:14:39;;;;;;;16.65;10.07;;;15.00;99.90;;;;;;4177199;28;20068;-64
2022/10/27 10:16:43;;;;;;;13.73;10.32;;;15.00;99.90;;;;;;4175935;28;20420;-68
2022/10/27 10:19:22;;;;;;;13.48;9.02;;;14.90;99.90;;;;;;4177192;28;20461;-66
2022/10/27 10:21:24;;;;;;;17.42;10.15;;;14.90;99.90;;;;;;4176192;28;20079;-66
2022/10/27 10:23:28;;;;;;;14.93;10.65;;;14.90;99.90;;;;;;4176902;28;20037;-67
2022/10/27 10:25:32;;;;;;;18.20;10.70;;;14.90;99.90;;;;;;4179038;28;20749;-68
2022/10/27 10:27:34;;;;;;;14.55;9.77;;;14.80;99.90;;;;;;4179999;28;20040;-64
2022/10/27 10:29:56;;;;;;;15.63;10.45;;;14.90;99.90;;;;;;4178465;28;20053;-64
2022/10/27 10:32:07;;;;;;;15.73;10.20;;;14.90;99.90;;;;;;4180028;28;20025;-64
2022/10/27 10:34:33;;;;;;;16.17;9.98;;;15.00;99.90;;;;;;4178283;28;20029;-64
2022/10/27 10:36:35;;;;;;;17.30;9.27;;;15.10;99.90;;;;;;4179840;28;20044;-63